sensor_id;sensor_type;location;lat;lon;timestamp;P1;durP1;ratioP1;P2;durP2;ratioP2
20988;SDS011;10653;47.052;15.410;2023-03-03T00:02:17;14.47;;;12.87;;
20988;SDS011;10653;47.052;15.410;2023-03-03T00:04:43;17.30;;;13.00;;
20988;SDS011;10653;47.052;15.410;2023-03-03T00:07:09;17.33;;;12.97;;
20988;SDS011;10653;47.052;15.410;2023-03-03T00:09:36;16.97;;;14.20;;
20988;SDS011;10653;47.052;15.410;2023-03-03T00:12:05;14.83;;;12.83;;
20988;SDS011;10653;47.052;15.410;2023-03-03T00:14:42;16.03;;;12.93;;
20988;SDS011;10653;47.052;15.410;2023-03-03T00:17:13;16.20;;;12.77;;
20988;SDS011;10653;47.052;15.410;2023-03-03T00:19:41;18.03;;;14.80;;
20988;SDS011;10653;47.052;15.410;2023-03-03T00:22:13;16.87;;;14.23;;
20988;SDS011;10653;47.052;15.410;2023-03-03T00:24:41;17.13;;;13.13;;
20988;SDS011;10653;47.052;15.410;2023-03-03T00:27:40;17.70;;;13.10;;
20988;SDS011;10653;47.052;15.410;2023-03-03T00:29:59;19.10;;;13.83;;
20988;SDS011;10653;47.052;15.410;2023-03-03T00:32:27;15.87;;;13.60;;
20988;SDS011;10653;47.052;15.410;2023-03-03T00:34:59;18.10;;;13.40;;
20988;SDS011;10653;47.052;15.410;2023-03-03T00:37:31;18.67;;;14.20;;
20988;SDS011;10653;47.052;15.410;2023-03-03T00:40:11;18.07;;;15.03;;
20988;SDS011;10653;47.052;15.410;2023-03-03T00:42:38;21.17;;;17.23;;
20988;SDS011;10653;47.052;15.410;2023-03-03T00:47:49;21.30;;;17.50;;
20988;SDS011;10653;47.052;15.410;2023-03-03T00:50:34;21.03;;;17.10;;
20988;SDS011;10653;47.052;15.410;2023-03-03T00:53:01;18.77;;;16.33;;
20988;SDS011;10653;47.052;15.410;2023-03-03T00:55:28;21.67;;;18.30;;
20988;SDS011;10653;47.052;15.410;2023-03-03T00:57:54;21.47;;;17.37;;
20988;SDS011;10653;47.052;15.410;2023-03-03T01:00:20;23.57;;;18.57;;
20988;SDS011;10653;47.052;15.410;2023-03-03T01:02:46;21.17;;;17.80;;
20988;SDS011;10653;47.052;15.410;2023-03-03T01:05:13;19.90;;;16.47;;
20988;SDS011;10653;47.052;15.410;2023-03-03T01:07:39;21.67;;;17.60;;
20988;SDS011;10653;47.052;15.410;2023-03-03T01:10:05;26.13;;;18.20;;
20988;SDS011;10653;47.052;15.410;2023-03-03T01:12:31;26.17;;;18.20;;
20988;SDS011;10653;47.052;15.410;2023-03-03T01:14:57;23.80;;;17.70;;
20988;SDS011;10653;47.052;15.410;2023-03-03T01:17:23;25.27;;;16.93;;
20988;SDS011;10653;47.052;15.410;2023-03-03T01:19:49;23.10;;;17.40;;
20988;SDS011;10653;47.052;15.410;2023-03-03T01:22:15;25.23;;;18.70;;
20988;SDS011;10653;47.052;15.410;2023-03-03T01:24:41;22.10;;;16.80;;
20988;SDS011;10653;47.052;15.410;2023-03-03T01:27:07;24.50;;;17.30;;
20988;SDS011;10653;47.052;15.410;2023-03-03T01:29:33;17.57;;;15.73;;
20988;SDS011;10653;47.052;15.410;2023-03-03T01:31:59;22.93;;;17.73;;
20988;SDS011;10653;47.052;15.410;2023-03-03T01:34:25;22.30;;;17.80;;
20988;SDS011;10653;47.052;15.410;2023-03-03T01:36:52;22.77;;;17.40;;
20988;SDS011;10653;47.052;15.410;2023-03-03T01:39:18;20.10;;;16.27;;
20988;SDS011;10653;47.052;15.410;2023-03-03T01:41:44;21.00;;;17.20;;
20988;SDS011;10653;47.052;15.410;2023-03-03T01:44:13;19.40;;;15.13;;
20988;SDS011;10653;47.052;15.410;2023-03-03T01:49:15;22.27;;;16.63;;
20988;SDS011;10653;47.052;15.410;2023-03-03T01:51:46;17.80;;;15.33;;
20988;SDS011;10653;47.052;15.410;2023-03-03T01:54:15;21.70;;;16.50;;
20988;SDS011;10653;47.052;15.410;2023-03-03T01:56:42;20.50;;;17.23;;
20988;SDS011;10653;47.052;15.410;2023-03-03T01:59:10;24.40;;;17.77;;
20988;SDS011;10653;47.052;15.410;2023-03-03T02:01:38;19.40;;;15.87;;
20988;SDS011;10653;47.052;15.410;2023-03-03T02:04:06;22.53;;;16.03;;
20988;SDS011;10653;47.052;15.410;2023-03-03T02:06:39;21.70;;;17.53;;
20988;SDS011;10653;47.052;15.410;2023-03-03T02:09:17;22.63;;;17.03;;
20988;SDS011;10653;47.052;15.410;2023-03-03T02:11:46;21.50;;;17.90;;
20988;SDS011;10653;47.052;15.410;2023-03-03T02:14:13;23.30;;;18.07;;
20988;SDS011;10653;47.052;15.410;2023-03-03T02:16:39;26.00;;;17.63;;
20988;SDS011;10653;47.052;15.410;2023-03-03T02:19:07;20.90;;;17.63;;
20988;SDS011;10653;47.052;15.410;2023-03-03T02:21:38;22.90;;;17.13;;
20988;SDS011;10653;47.052;15.410;2023-03-03T02:26:30;20.20;;;16.23;;
20988;SDS011;10653;47.052;15.410;2023-03-03T02:28:57;22.70;;;15.57;;
20988;SDS011;10653;47.052;15.410;2023-03-03T02:31:25;18.77;;;14.97;;
20988;SDS011;10653;47.052;15.410;2023-03-03T02:33:51;22.07;;;15.90;;
20988;SDS011;10653;47.052;15.410;2023-03-03T02:36:19;19.27;;;15.10;;
20988;SDS011;10653;47.052;15.410;2023-03-03T02:44:04;20.00;;;16.10;;
20988;SDS011;10653;47.052;15.410;2023-03-03T02:46:32;18.13;;;14.37;;
20988;SDS011;10653;47.052;15.410;2023-03-03T02:48:58;15.40;;;13.30;;
20988;SDS011;10653;47.052;15.410;2023-03-03T02:51:24;19.13;;;14.87;;
20988;SDS011;10653;47.052;15.410;2023-03-03T02:53:50;16.98;;;14.45;;
20988;SDS011;10653;47.052;15.410;2023-03-03T02:56:16;19.03;;;14.87;;
20988;SDS011;10653;47.052;15.410;2023-03-03T02:58:42;18.90;;;15.20;;
20988;SDS011;10653;47.052;15.410;2023-03-03T03:01:09;17.90;;;15.17;;
20988;SDS011;10653;47.052;15.410;2023-03-03T03:03:35;19.30;;;15.40;;
20988;SDS011;10653;47.052;15.410;2023-03-03T03:06:01;16.60;;;14.17;;
20988;SDS011;10653;47.052;15.410;2023-03-03T03:08:27;18.73;;;15.47;;
20988;SDS011;10653;47.052;15.410;2023-03-03T03:10:53;17.93;;;14.33;;
20988;SDS011;10653;47.052;15.410;2023-03-03T03:13:21;16.00;;;14.07;;
20988;SDS011;10653;47.052;15.410;2023-03-03T03:15:47;17.73;;;15.30;;
20988;SDS011;10653;47.052;15.410;2023-03-03T03:18:13;18.07;;;14.60;;
20988;SDS011;10653;47.052;15.410;2023-03-03T03:20:40;21.80;;;15.57;;
20988;SDS011;10653;47.052;15.410;2023-03-03T03:23:06;17.87;;;15.77;;
20988;SDS011;10653;47.052;15.410;2023-03-03T03:25:32;18.30;;;15.10;;
20988;SDS011;10653;47.052;15.410;2023-03-03T03:27:58;16.83;;;14.90;;
20988;SDS011;10653;47.052;15.410;2023-03-03T03:30:24;22.70;;;15.90;;
20988;SDS011;10653;47.052;15.410;2023-03-03T03:32:51;16.00;;;13.97;;
20988;SDS011;10653;47.052;15.410;2023-03-03T03:35:17;20.30;;;16.03;;
20988;SDS011;10653;47.052;15.410;2023-03-03T03:37:43;19.93;;;16.83;;
20988;SDS011;10653;47.052;15.410;2023-03-03T03:40:09;18.43;;;14.87;;
20988;SDS011;10653;47.052;15.410;2023-03-03T03:42:36;20.67;;;16.30;;
20988;SDS011;10653;47.052;15.410;2023-03-03T03:45:03;19.93;;;16.80;;
20988;SDS011;10653;47.052;15.410;2023-03-03T03:47:29;23.00;;;17.73;;
20988;SDS011;10653;47.052;15.410;2023-03-03T03:49:55;20.90;;;17.87;;
20988;SDS011;10653;47.052;15.410;2023-03-03T03:52:21;20.47;;;17.43;;
20988;SDS011;10653;47.052;15.410;2023-03-03T03:54:47;20.70;;;17.43;;
20988;SDS011;10653;47.052;15.410;2023-03-03T03:57:14;24.60;;;17.80;;
20988;SDS011;10653;47.052;15.410;2023-03-03T03:59:39;22.10;;;18.83;;
20988;SDS011;10653;47.052;15.410;2023-03-03T04:02:06;20.80;;;17.95;;
20988;SDS011;10653;47.052;15.410;2023-03-03T04:04:32;21.60;;;18.00;;
20988;SDS011;10653;47.052;15.410;2023-03-03T04:06:58;29.00;;;19.23;;
20988;SDS011;10653;47.052;15.410;2023-03-03T04:09:24;22.20;;;18.57;;
20988;SDS011;10653;47.052;15.410;2023-03-03T04:11:50;23.70;;;20.00;;
20988;SDS011;10653;47.052;15.410;2023-03-03T04:14:16;23.00;;;18.85;;
20988;SDS011;10653;47.052;15.410;2023-03-03T04:16:42;22.83;;;19.83;;
20988;SDS011;10653;47.052;15.410;2023-03-03T04:19:08;22.85;;;19.30;;
20988;SDS011;10653;47.052;15.410;2023-03-03T04:21:34;26.40;;;19.20;;
20988;SDS011;10653;47.052;15.410;2023-03-03T04:24:00;23.30;;;19.40;;
20988;SDS011;10653;47.052;15.410;2023-03-03T04:26:27;21.98;;;19.60;;
20988;SDS011;10653;47.052;15.410;2023-03-03T04:28:55;23.65;;;19.05;;
20988;SDS011;10653;47.052;15.410;2023-03-03T04:31:20;23.27;;;19.17;;
20988;SDS011;10653;47.052;15.410;2023-03-03T04:33:47;23.50;;;18.50;;
20988;SDS011;10653;47.052;15.410;2023-03-03T04:36:13;21.63;;;18.75;;
20988;SDS011;10653;47.052;15.410;2023-03-03T04:38:39;27.45;;;20.60;;
20988;SDS011;10653;47.052;15.410;2023-03-03T04:41:05;22.40;;;20.00;;
20988;SDS011;10653;47.052;15.410;2023-03-03T04:43:31;24.80;;;20.63;;
20988;SDS011;10653;47.052;15.410;2023-03-03T04:45:57;23.27;;;19.03;;
20988;SDS011;10653;47.052;15.410;2023-03-03T04:48:23;25.67;;;19.30;;
20988;SDS011;10653;47.052;15.410;2023-03-03T04:50:49;23.00;;;19.55;;
20988;SDS011;10653;47.052;15.410;2023-03-03T04:53:15;24.27;;;18.90;;
20988;SDS011;10653;47.052;15.410;2023-03-03T04:55:41;22.50;;;19.00;;
20988;SDS011;10653;47.052;15.410;2023-03-03T04:58:07;21.58;;;18.88;;
20988;SDS011;10653;47.052;15.410;2023-03-03T05:00:34;23.73;;;19.77;;
20988;SDS011;10653;47.052;15.410;2023-03-03T05:03:00;22.97;;;18.57;;
20988;SDS011;10653;47.052;15.410;2023-03-03T05:05:26;22.95;;;19.30;;
20988;SDS011;10653;47.052;15.410;2023-03-03T05:07:52;22.58;;;19.52;;
20988;SDS011;10653;47.052;15.410;2023-03-03T05:10:18;21.75;;;19.52;;
20988;SDS011;10653;47.052;15.410;2023-03-03T05:12:45;23.70;;;19.93;;
20988;SDS011;10653;47.052;15.410;2023-03-03T05:15:11;22.90;;;18.50;;
20988;SDS011;10653;47.052;15.410;2023-03-03T05:17:37;25.58;;;20.38;;
20988;SDS011;10653;47.052;15.410;2023-03-03T05:20:04;24.00;;;18.83;;
20988;SDS011;10653;47.052;15.410;2023-03-03T05:22:32;21.55;;;18.48;;
20988;SDS011;10653;47.052;15.410;2023-03-03T05:24:58;23.05;;;19.65;;
20988;SDS011;10653;47.052;15.410;2023-03-03T05:27:24;25.10;;;20.57;;
20988;SDS011;10653;47.052;15.410;2023-03-03T05:29:50;23.92;;;19.25;;
20988;SDS011;10653;47.052;15.410;2023-03-03T05:32:16;24.77;;;20.80;;
20988;SDS011;10653;47.052;15.410;2023-03-03T05:34:42;23.00;;;18.00;;
20988;SDS011;10653;47.052;15.410;2023-03-03T05:37:08;26.65;;;19.83;;
20988;SDS011;10653;47.052;15.410;2023-03-03T05:39:34;20.95;;;18.48;;
20988;SDS011;10653;47.052;15.410;2023-03-03T05:42:00;25.73;;;18.35;;
20988;SDS011;10653;47.052;15.410;2023-03-03T05:44:27;23.30;;;19.48;;
20988;SDS011;10653;47.052;15.410;2023-03-03T05:46:53;20.20;;;18.13;;
20988;SDS011;10653;47.052;15.410;2023-03-03T05:49:20;24.92;;;19.15;;
20988;SDS011;10653;47.052;15.410;2023-03-03T05:51:46;24.80;;;19.20;;
20988;SDS011;10653;47.052;15.410;2023-03-03T05:54:12;20.67;;;17.50;;
20988;SDS011;10653;47.052;15.410;2023-03-03T05:56:38;20.67;;;18.45;;
20988;SDS011;10653;47.052;15.410;2023-03-03T05:59:04;20.25;;;17.85;;
20988;SDS011;10653;47.052;15.410;2023-03-03T06:01:30;25.60;;;19.70;;
20988;SDS011;10653;47.052;15.410;2023-03-03T06:03:56;23.50;;;19.23;;
20988;SDS011;10653;47.052;15.410;2023-03-03T06:06:22;21.43;;;19.07;;
20988;SDS011;10653;47.052;15.410;2023-03-03T06:08:49;23.40;;;19.40;;
20988;SDS011;10653;47.052;15.410;2023-03-03T06:11:15;28.70;;;20.70;;
20988;SDS011;10653;47.052;15.410;2023-03-03T06:13:42;21.90;;;19.60;;
20988;SDS011;10653;47.052;15.410;2023-03-03T06:16:08;26.77;;;21.27;;
20988;SDS011;10653;47.052;15.410;2023-03-03T06:18:35;24.70;;;20.42;;
20988;SDS011;10653;47.052;15.410;2023-03-03T06:21:01;24.10;;;19.38;;
20988;SDS011;10653;47.052;15.410;2023-03-03T06:23:27;23.43;;;19.77;;
20988;SDS011;10653;47.052;15.410;2023-03-03T06:25:53;25.65;;;20.23;;
20988;SDS011;10653;47.052;15.410;2023-03-03T06:28:19;24.07;;;20.40;;
20988;SDS011;10653;47.052;15.410;2023-03-03T06:30:45;29.17;;;21.17;;
20988;SDS011;10653;47.052;15.410;2023-03-03T06:33:11;23.50;;;19.67;;
20988;SDS011;10653;47.052;15.410;2023-03-03T06:35:37;25.45;;;20.00;;
20988;SDS011;10653;47.052;15.410;2023-03-03T06:38:03;23.13;;;19.50;;
20988;SDS011;10653;47.052;15.410;2023-03-03T06:40:29;22.67;;;20.27;;
20988;SDS011;10653;47.052;15.410;2023-03-03T06:42:55;24.80;;;20.53;;
20988;SDS011;10653;47.052;15.410;2023-03-03T06:45:21;20.87;;;17.87;;
20988;SDS011;10653;47.052;15.410;2023-03-03T06:47:47;22.97;;;20.50;;
20988;SDS011;10653;47.052;15.410;2023-03-03T06:50:13;26.37;;;19.70;;
20988;SDS011;10653;47.052;15.410;2023-03-03T06:52:43;26.60;;;21.70;;
20988;SDS011;10653;47.052;15.410;2023-03-03T06:55:11;24.97;;;19.30;;
20988;SDS011;10653;47.052;15.410;2023-03-03T06:57:37;25.27;;;21.27;;
20988;SDS011;10653;47.052;15.410;2023-03-03T07:00:26;27.53;;;19.77;;
20988;SDS011;10653;47.052;15.410;2023-03-03T07:03:01;24.03;;;19.87;;
20988;SDS011;10653;47.052;15.410;2023-03-03T07:05:30;26.03;;;20.60;;
20988;SDS011;10653;47.052;15.410;2023-03-03T07:07:58;26.90;;;21.77;;
20988;SDS011;10653;47.052;15.410;2023-03-03T07:10:28;24.97;;;19.60;;
20988;SDS011;10653;47.052;15.410;2023-03-03T07:12:55;23.43;;;19.67;;
20988;SDS011;10653;47.052;15.410;2023-03-03T07:15:23;25.77;;;21.20;;
20988;SDS011;10653;47.052;15.410;2023-03-03T07:17:54;25.80;;;21.53;;
20988;SDS011;10653;47.052;15.410;2023-03-03T07:20:23;24.80;;;20.63;;
20988;SDS011;10653;47.052;15.410;2023-03-03T07:22:49;27.20;;;21.83;;
20988;SDS011;10653;47.052;15.410;2023-03-03T07:27:51;27.13;;;22.10;;
20988;SDS011;10653;47.052;15.410;2023-03-03T07:30:23;25.33;;;21.83;;
20988;SDS011;10653;47.052;15.410;2023-03-03T07:32:49;27.70;;;21.30;;
20988;SDS011;10653;47.052;15.410;2023-03-03T07:37:43;24.10;;;20.40;;
20988;SDS011;10653;47.052;15.410;2023-03-03T07:42:54;23.83;;;19.70;;
20988;SDS011;10653;47.052;15.410;2023-03-03T07:45:22;27.60;;;22.83;;
20988;SDS011;10653;47.052;15.410;2023-03-03T07:47:49;24.20;;;20.50;;
20988;SDS011;10653;47.052;15.410;2023-03-03T07:50:18;23.87;;;19.97;;
20988;SDS011;10653;47.052;15.410;2023-03-03T07:52:55;26.30;;;21.07;;
20988;SDS011;10653;47.052;15.410;2023-03-03T07:57:48;27.20;;;21.90;;
20988;SDS011;10653;47.052;15.410;2023-03-03T08:07:46;26.90;;;19.13;;
20988;SDS011;10653;47.052;15.410;2023-03-03T08:10:28;25.83;;;20.27;;
20988;SDS011;10653;47.052;15.410;2023-03-03T08:12:56;24.60;;;22.00;;
20988;SDS011;10653;47.052;15.410;2023-03-03T08:15:24;28.47;;;21.23;;
20988;SDS011;10653;47.052;15.410;2023-03-03T08:17:51;22.17;;;19.87;;
20988;SDS011;10653;47.052;15.410;2023-03-03T08:22:53;24.67;;;20.73;;
20988;SDS011;10653;47.052;15.410;2023-03-03T08:25:20;26.37;;;21.00;;
20988;SDS011;10653;47.052;15.410;2023-03-03T08:27:46;29.33;;;20.73;;
20988;SDS011;10653;47.052;15.410;2023-03-03T08:30:12;24.97;;;20.73;;
20988;SDS011;10653;47.052;15.410;2023-03-03T08:32:38;27.30;;;21.97;;
20988;SDS011;10653;47.052;15.410;2023-03-03T08:35:04;22.10;;;19.80;;
20988;SDS011;10653;47.052;15.410;2023-03-03T08:37:30;24.23;;;20.23;;
20988;SDS011;10653;47.052;15.410;2023-03-03T08:39:56;34.90;;;22.73;;
20988;SDS011;10653;47.052;15.410;2023-03-03T08:42:22;23.17;;;19.43;;
20988;SDS011;10653;47.052;15.410;2023-03-03T08:44:48;25.97;;;21.37;;
20988;SDS011;10653;47.052;15.410;2023-03-03T08:47:14;25.37;;;19.33;;
20988;SDS011;10653;47.052;15.410;2023-03-03T08:49:40;22.60;;;18.40;;
20988;SDS011;10653;47.052;15.410;2023-03-03T08:52:06;22.73;;;19.47;;
20988;SDS011;10653;47.052;15.410;2023-03-03T08:54:32;24.57;;;19.60;;
20988;SDS011;10653;47.052;15.410;2023-03-03T08:56:58;21.80;;;18.93;;
20988;SDS011;10653;47.052;15.410;2023-03-03T08:59:24;24.47;;;19.30;;
20988;SDS011;10653;47.052;15.410;2023-03-03T09:01:50;22.80;;;18.73;;
20988;SDS011;10653;47.052;15.410;2023-03-03T09:04:16;21.27;;;18.37;;
20988;SDS011;10653;47.052;15.410;2023-03-03T09:06:42;24.20;;;19.37;;
20988;SDS011;10653;47.052;15.410;2023-03-03T09:09:08;25.87;;;20.53;;
20988;SDS011;10653;47.052;15.410;2023-03-03T09:11:34;25.43;;;19.93;;
20988;SDS011;10653;47.052;15.410;2023-03-03T09:14:11;25.70;;;19.37;;
20988;SDS011;10653;47.052;15.410;2023-03-03T09:16:38;22.57;;;19.47;;
20988;SDS011;10653;47.052;15.410;2023-03-03T09:22:19;26.90;;;20.07;;
20988;SDS011;10653;47.052;15.410;2023-03-03T09:24:45;22.27;;;18.93;;
20988;SDS011;10653;47.052;15.410;2023-03-03T09:27:14;24.67;;;18.20;;
20988;SDS011;10653;47.052;15.410;2023-03-03T09:29:43;26.13;;;20.53;;
20988;SDS011;10653;47.052;15.410;2023-03-03T09:37:19;16.50;;;13.60;;
20988;SDS011;10653;47.052;15.410;2023-03-03T09:39:50;20.40;;;14.90;;
20988;SDS011;10653;47.052;15.410;2023-03-03T09:55:18;21.20;;;15.50;;
20988;SDS011;10653;47.052;15.410;2023-03-03T10:11:37;14.87;;;12.27;;
20988;SDS011;10653;47.052;15.410;2023-03-03T10:16:52;13.80;;;10.90;;
20988;SDS011;10653;47.052;15.410;2023-03-03T10:22:19;15.23;;;12.07;;
20988;SDS011;10653;47.052;15.410;2023-03-03T10:39:56;12.87;;;10.23;;
20988;SDS011;10653;47.052;15.410;2023-03-03T10:52:57;12.90;;;8.80;;
20988;SDS011;10653;47.052;15.410;2023-03-03T10:58:06;12.30;;;9.17;;
20988;SDS011;10653;47.052;15.410;2023-03-03T11:00:40;11.77;;;10.43;;
20988;SDS011;10653;47.052;15.410;2023-03-03T11:06:00;10.90;;;8.53;;
20988;SDS011;10653;47.052;15.410;2023-03-03T11:08:40;10.90;;;8.73;;
20988;SDS011;10653;47.052;15.410;2023-03-03T11:13:52;13.63;;;8.70;;
20988;SDS011;10653;47.052;15.410;2023-03-03T11:21:44;11.83;;;8.10;;
20988;SDS011;10653;47.052;15.410;2023-03-03T11:37:05;12.20;;;8.80;;
20988;SDS011;10653;47.052;15.410;2023-03-03T11:39:33;11.10;;;10.00;;
20988;SDS011;10653;47.052;15.410;2023-03-03T11:44:36;14.67;;;9.57;;
20988;SDS011;10653;47.052;15.410;2023-03-03T11:47:05;10.97;;;9.20;;
20988;SDS011;10653;47.052;15.410;2023-03-03T11:57:53;10.87;;;9.63;;
20988;SDS011;10653;47.052;15.410;2023-03-03T12:02:54;11.27;;;8.67;;
20988;SDS011;10653;47.052;15.410;2023-03-03T12:05:29;14.63;;;8.20;;
20988;SDS011;10653;47.052;15.410;2023-03-03T12:07:59;9.03;;;8.13;;
20988;SDS011;10653;47.052;15.410;2023-03-03T12:18:11;10.27;;;8.43;;
20988;SDS011;10653;47.052;15.410;2023-03-03T12:28:54;15.13;;;8.63;;
20988;SDS011;10653;47.052;15.410;2023-03-03T12:34:13;10.10;;;8.07;;
20988;SDS011;10653;47.052;15.410;2023-03-03T12:37:28;12.43;;;8.30;;
20988;SDS011;10653;47.052;15.410;2023-03-03T12:42:03;10.77;;;7.93;;
20988;SDS011;10653;47.052;15.410;2023-03-03T12:47:04;9.63;;;7.47;;
20988;SDS011;10653;47.052;15.410;2023-03-03T12:49:42;11.70;;;9.03;;
20988;SDS011;10653;47.052;15.410;2023-03-03T12:54:45;12.73;;;8.63;;
20988;SDS011;10653;47.052;15.410;2023-03-03T12:57:18;8.67;;;7.87;;
20988;SDS011;10653;47.052;15.410;2023-03-03T13:07:44;10.00;;;7.03;;
20988;SDS011;10653;47.052;15.410;2023-03-03T13:10:17;8.57;;;6.90;;
20988;SDS011;10653;47.052;15.410;2023-03-03T13:15:32;12.20;;;8.67;;
20988;SDS011;10653;47.052;15.410;2023-03-03T13:26:30;12.07;;;8.80;;
20988;SDS011;10653;47.052;15.410;2023-03-03T13:28:40;11.90;;;8.27;;
20988;SDS011;10653;47.052;15.410;2023-03-03T13:31:11;11.03;;;8.97;;
20988;SDS011;10653;47.052;15.410;2023-03-03T13:33:39;13.00;;;9.60;;
20988;SDS011;10653;47.052;15.410;2023-03-03T13:36:10;13.20;;;8.60;;
20988;SDS011;10653;47.052;15.410;2023-03-03T13:38:42;12.03;;;9.40;;
20988;SDS011;10653;47.052;15.410;2023-03-03T13:59:14;13.00;;;10.13;;
20988;SDS011;10653;47.052;15.410;2023-03-03T14:06:53;14.17;;;9.13;;
20988;SDS011;10653;47.052;15.410;2023-03-03T14:09:21;14.77;;;9.43;;
20988;SDS011;10653;47.052;15.410;2023-03-03T14:11:59;12.43;;;9.07;;
20988;SDS011;10653;47.052;15.410;2023-03-03T14:16:59;14.43;;;9.00;;
20988;SDS011;10653;47.052;15.410;2023-03-03T14:19:27;13.83;;;9.00;;
20988;SDS011;10653;47.052;15.410;2023-03-03T14:22:12;13.70;;;9.27;;
20988;SDS011;10653;47.052;15.410;2023-03-03T14:24:53;12.27;;;9.50;;
20988;SDS011;10653;47.052;15.410;2023-03-03T14:27:26;10.00;;;8.63;;
20988;SDS011;10653;47.052;15.410;2023-03-03T14:29:52;12.33;;;9.30;;
20988;SDS011;10653;47.052;15.410;2023-03-03T14:32:25;13.60;;;9.30;;
20988;SDS011;10653;47.052;15.410;2023-03-03T14:34:58;11.57;;;9.10;;
20988;SDS011;10653;47.052;15.410;2023-03-03T14:42:38;12.63;;;10.60;;
20988;SDS011;10653;47.052;15.410;2023-03-03T14:45:42;12.53;;;9.70;;
20988;SDS011;10653;47.052;15.410;2023-03-03T14:50:49;12.53;;;8.70;;
20988;SDS011;10653;47.052;15.410;2023-03-03T14:53:20;11.90;;;8.83;;
20988;SDS011;10653;47.052;15.410;2023-03-03T14:55:47;14.57;;;10.23;;
20988;SDS011;10653;47.052;15.410;2023-03-03T15:00:49;10.90;;;9.53;;
20988;SDS011;10653;47.052;15.410;2023-03-03T15:03:56;12.13;;;9.50;;
20988;SDS011;10653;47.052;15.410;2023-03-03T15:06:11;11.97;;;9.03;;
20988;SDS011;10653;47.052;15.410;2023-03-03T15:08:38;13.37;;;9.90;;
20988;SDS011;10653;47.052;15.410;2023-03-03T15:11:12;10.63;;;9.47;;
20988;SDS011;10653;47.052;15.410;2023-03-03T15:13:38;11.70;;;8.43;;
20988;SDS011;10653;47.052;15.410;2023-03-03T15:16:09;11.87;;;8.30;;
20988;SDS011;10653;47.052;15.410;2023-03-03T15:18:49;10.73;;;8.60;;
20988;SDS011;10653;47.052;15.410;2023-03-03T15:21:18;11.43;;;8.93;;
20988;SDS011;10653;47.052;15.410;2023-03-03T15:24:00;13.10;;;9.50;;
20988;SDS011;10653;47.052;15.410;2023-03-03T15:29:07;15.80;;;10.10;;
20988;SDS011;10653;47.052;15.410;2023-03-03T15:31:41;14.90;;;10.27;;
20988;SDS011;10653;47.052;15.410;2023-03-03T15:42:14;11.90;;;9.20;;
20988;SDS011;10653;47.052;15.410;2023-03-03T15:52:27;15.03;;;9.60;;
20988;SDS011;10653;47.052;15.410;2023-03-03T15:55:01;10.53;;;8.80;;
20988;SDS011;10653;47.052;15.410;2023-03-03T16:00:21;11.80;;;9.03;;
20988;SDS011;10653;47.052;15.410;2023-03-03T16:05:43;16.07;;;9.47;;
20988;SDS011;10653;47.052;15.410;2023-03-03T16:10:59;14.63;;;9.43;;
20988;SDS011;10653;47.052;15.410;2023-03-03T16:19:04;16.53;;;9.40;;
20988;SDS011;10653;47.052;15.410;2023-03-03T16:24:12;13.00;;;9.50;;
20988;SDS011;10653;47.052;15.410;2023-03-03T16:26:58;12.67;;;9.47;;
20988;SDS011;10653;47.052;15.410;2023-03-03T16:32:05;11.50;;;9.17;;
20988;SDS011;10653;47.052;15.410;2023-03-03T16:34:54;10.00;;;8.30;;
20988;SDS011;10653;47.052;15.410;2023-03-03T16:42:16;12.40;;;9.53;;
20988;SDS011;10653;47.052;15.410;2023-03-03T16:52:18;17.13;;;10.60;;
20988;SDS011;10653;47.052;15.410;2023-03-03T16:54:49;13.57;;;10.77;;
20988;SDS011;10653;47.052;15.410;2023-03-03T17:02:52;20.80;;;13.20;;
20988;SDS011;10653;47.052;15.410;2023-03-03T17:20:13;14.00;;;11.57;;
20988;SDS011;10653;47.052;15.410;2023-03-03T17:25:16;16.27;;;14.57;;
20988;SDS011;10653;47.052;15.410;2023-03-03T17:33:18;15.53;;;12.83;;
20988;SDS011;10653;47.052;15.410;2023-03-03T17:38:25;15.73;;;13.73;;
20988;SDS011;10653;47.052;15.410;2023-03-03T17:46:01;16.93;;;12.80;;
20988;SDS011;10653;47.052;15.410;2023-03-03T18:17:18;17.27;;;13.70;;
20988;SDS011;10653;47.052;15.410;2023-03-03T18:24:58;24.73;;;17.30;;
20988;SDS011;10653;47.052;15.410;2023-03-03T18:27:29;25.73;;;18.17;;
20988;SDS011;10653;47.052;15.410;2023-03-03T18:35:29;32.53;;;22.30;;
20988;SDS011;10653;47.052;15.410;2023-03-03T18:46:05;38.03;;;26.27;;
20988;SDS011;10653;47.052;15.410;2023-03-03T18:48:47;39.83;;;26.47;;
20988;SDS011;10653;47.052;15.410;2023-03-03T18:54:04;32.00;;;23.77;;
20988;SDS011;10653;47.052;15.410;2023-03-03T18:56:41;31.87;;;23.60;;
20988;SDS011;10653;47.052;15.410;2023-03-03T18:59:08;22.77;;;20.20;;
20988;SDS011;10653;47.052;15.410;2023-03-03T19:01:42;33.27;;;22.83;;
20988;SDS011;10653;47.052;15.410;2023-03-03T19:04:16;33.17;;;23.87;;
20988;SDS011;10653;47.052;15.410;2023-03-03T19:09:17;28.73;;;23.33;;
20988;SDS011;10653;47.052;15.410;2023-03-03T19:11:57;27.53;;;22.60;;
20988;SDS011;10653;47.052;15.410;2023-03-03T19:16:52;26.90;;;22.27;;
20988;SDS011;10653;47.052;15.410;2023-03-03T19:19:19;27.73;;;20.27;;
20988;SDS011;10653;47.052;15.410;2023-03-03T19:21:48;31.27;;;22.90;;
20988;SDS011;10653;47.052;15.410;2023-03-03T19:39:39;28.90;;;24.23;;
20988;SDS011;10653;47.052;15.410;2023-03-03T20:00:06;23.17;;;18.67;;
20988;SDS011;10653;47.052;15.410;2023-03-03T20:05:20;32.33;;;26.73;;
20988;SDS011;10653;47.052;15.410;2023-03-03T20:10:59;49.93;;;36.30;;
20988;SDS011;10653;47.052;15.410;2023-03-03T20:13:33;40.60;;;28.30;;
20988;SDS011;10653;47.052;15.410;2023-03-03T20:16:08;42.53;;;29.43;;
20988;SDS011;10653;47.052;15.410;2023-03-03T20:26:27;29.23;;;22.37;;
20988;SDS011;10653;47.052;15.410;2023-03-03T20:39:10;31.47;;;25.70;;
20988;SDS011;10653;47.052;15.410;2023-03-03T20:51:49;29.77;;;23.00;;
20988;SDS011;10653;47.052;15.410;2023-03-03T20:54:39;28.67;;;23.40;;
20988;SDS011;10653;47.052;15.410;2023-03-03T20:59:39;31.80;;;25.13;;
20988;SDS011;10653;47.052;15.410;2023-03-03T21:04:36;29.07;;;23.47;;
20988;SDS011;10653;47.052;15.410;2023-03-03T21:07:03;32.40;;;23.40;;
20988;SDS011;10653;47.052;15.410;2023-03-03T21:11:57;25.80;;;21.20;;
20988;SDS011;10653;47.052;15.410;2023-03-03T21:14:25;24.23;;;20.43;;
20988;SDS011;10653;47.052;15.410;2023-03-03T21:16:52;23.50;;;21.00;;
20988;SDS011;10653;47.052;15.410;2023-03-03T21:19:27;24.20;;;19.57;;
20988;SDS011;10653;47.052;15.410;2023-03-03T21:21:55;23.55;;;20.95;;
20988;SDS011;10653;47.052;15.410;2023-03-03T21:24:21;29.60;;;21.70;;
20988;SDS011;10653;47.052;15.410;2023-03-03T21:26:52;26.47;;;21.50;;
20988;SDS011;10653;47.052;15.410;2023-03-03T21:31:46;27.20;;;20.23;;
20988;SDS011;10653;47.052;15.410;2023-03-03T21:34:17;27.70;;;19.80;;
20988;SDS011;10653;47.052;15.410;2023-03-03T21:36:44;24.90;;;19.87;;
20988;SDS011;10653;47.052;15.410;2023-03-03T21:41:53;25.80;;;20.67;;
20988;SDS011;10653;47.052;15.410;2023-03-03T21:44:37;24.63;;;20.77;;